Leland, IL (60531)

8:48 PM CDT on October 21, 2014 (GMT -0500)
Weather at Chuck and Pats House | Change Station
CLOSE
Current Station
Personal Weather Station
Location: Serena, IL
Elevation: 633 ft
Nearby Weather Stations

Elev 633 ft 41.51 °N, 88.74 °W | Updated 0 second ago

Mostly Cloudy
Mostly Cloudy
47.0 °F
Feels Like 46 °F
N
3.7
Wind Variable Wind from ENE
Gusts 8.1 mph

Today
High -- | Low -- °F
--% Chance of Precip.
Yesterday
High -- | Low -- °F
Precip. -- in
7:14 AM 6:04 PM
Waning Crescent, 3% visible
Pressure 30.27 in
Visibility 10.0 miles
Clouds Overcast 3000 ft
Windchill 46 °F
Dew Point 40 °F
Humidity 75%
Rainfall 0.00 in
Snow Depth Not available.
UV 0 out of 12
Pollen 1.50 out of 12
Air Quality Not available.
Flu Activity No Activity
METAR KARR 220052Z 02006KT 10SM OVC030 09/02 A3025 RMK AO2 SLP248 T00890022

More Conditions Fewer Conditions

Pressure 30.27 in
Visibility 10.0 miles
Clouds Overcast 3000 ft
Windchill 46 °F
Dew Point 40 °F
Humidity 75%
Rainfall 0.00 in
Snow Depth Not available.
UV 0 out of 12
Pollen 1.50 out of 12
Air Quality Not available.
Flu Activity No Activity
METAR KARR 220052Z 02006KT 10SM OVC030 09/02 A3025 RMK AO2 SLP248 T00890022

More Conditions Fewer Conditions

10-Day Weather Forecast

Almanac

Astronomy

Oct. 21, 2014 Rise Set
Actual Time 7:14 AM CDT 6:04 PM CDT
Civil Twilight 6:45 AM CDT 6:32 PM CDT
Nautical Twilight 6:13 AM CDT 7:05 PM CDT
Astronomical Twilight 5:41 AM CDT 7:37 PM CDT
Moon 4:56 AM CDT (10/21) 5:00 PM CDT (10/21)
Length of Visible Light 11h 47m
Length of Day
10h 50m
Tomorrow will be 2m 38s shorter.
Waning Crescent, 3% of the Moon is Illuminated
Today
Waning Crescent
Oct 23
New
Oct 30
First Quarter
Nov 6
Full
Nov 14
Last Quarter

Today's Extremes

State Highs State Lows

Community

WunderPhotos

Upload Photos

1,763,843 photos uploaded!

Nearby

Snow Depth

Station Depth Elevation
No new snow has been reported.

Earthquake Activity

City Distance Mag. Time & Date
No recent earthquake activity has been reported nearby.
Minimum magnitude displayed is 2.5.

Coastal Water Temperatures

Place Temperature
No Stations Reporting

Nearby Weather Stations